createdAt,value
2018-11-14T00:01:27.710Z,8.46
2018-11-14T00:03:57.624Z,8.42
2018-11-14T00:06:27.415Z,8.42
2018-11-14T00:08:57.321Z,8.36
2018-11-14T00:11:27.078Z,8.43
2018-11-14T00:13:57.617Z,8.47
2018-11-14T00:16:27.343Z,8.57
2018-11-14T00:18:57.266Z,8.59
2018-11-14T00:21:27.196Z,8.58
2018-11-14T00:23:57.022Z,8.62
2018-11-14T00:26:26.744Z,8.61
2018-11-14T00:28:57.044Z,8.60
2018-11-14T00:31:27.479Z,8.58
2018-11-14T00:33:57.215Z,8.61
2018-11-14T00:36:26.986Z,8.66
2018-11-14T00:38:56.820Z,8.59
2018-11-14T00:41:26.725Z,8.65
2018-11-14T00:43:56.413Z,8.75
2018-11-14T00:46:26.922Z,8.62
2018-11-14T00:48:56.723Z,8.63
2018-11-14T00:51:26.661Z,8.59
2018-11-14T00:53:57.058Z,8.53
2018-11-14T00:56:27.200Z,8.49
2018-11-14T00:58:57.195Z,8.44
2018-11-14T01:01:27.044Z,8.45
2018-11-14T01:03:57.834Z,8.45
2018-11-14T01:06:27.740Z,8.34
2018-11-14T01:08:58.172Z,8.54
2018-11-14T01:11:28.183Z,8.44
2018-11-14T01:13:57.902Z,8.53
2018-11-14T01:16:27.746Z,8.52
2018-11-14T01:18:57.565Z,8.53
2018-11-14T01:21:27.436Z,8.63
2018-11-14T01:23:57.260Z,8.72
2018-11-14T01:26:27.190Z,8.75
2018-11-14T01:28:56.876Z,8.78
2018-11-14T01:31:26.837Z,8.84
2018-11-14T01:33:56.609Z,9.02
2018-11-14T01:36:26.386Z,8.99
2018-11-14T01:38:56.592Z,9.06
2018-11-14T01:41:26.696Z,8.78
2018-11-14T01:43:56.525Z,8.55
2018-11-14T01:46:26.191Z,8.67
2018-11-14T01:48:56.354Z,8.63
2018-11-14T01:51:26.679Z,8.64
2018-11-14T01:53:56.622Z,9.08
2018-11-14T01:56:27.085Z,8.68
2018-11-14T01:58:58.071Z,8.69
2018-11-14T02:01:27.835Z,9.09
2018-11-14T02:04:04.609Z,8.68
2018-11-14T02:06:34.421Z,8.76
2018-11-14T02:09:05.699Z,8.86
2018-11-14T02:11:36.022Z,8.78
2018-11-14T02:14:06.440Z,8.71
2018-11-14T02:16:37.390Z,8.79
2018-11-14T02:19:07.425Z,9.00
2018-11-14T02:21:37.178Z,9.05
2018-11-14T02:24:07.807Z,9.12
2018-11-14T02:26:37.611Z,9.06
2018-11-14T02:29:07.556Z,8.98
2018-11-14T02:31:37.446Z,8.98
2018-11-14T02:34:07.900Z,9.01
2018-11-14T02:36:38.415Z,9.00
2018-11-14T02:39:09.169Z,8.95
2018-11-14T02:41:39.260Z,8.93
2018-11-14T02:44:09.432Z,8.86
2018-11-14T02:46:39.255Z,8.88
2018-11-14T02:49:09.106Z,8.74
2018-11-14T02:51:41.713Z,8.70
2018-11-14T02:54:12.590Z,8.71
2018-11-14T02:56:42.416Z,8.61
2018-11-14T02:59:14.425Z,8.59
2018-11-14T03:01:44.872Z,8.63
2018-11-14T03:04:14.716Z,8.58
2018-11-14T03:06:44.664Z,8.63
2018-11-14T03:09:14.553Z,8.61
2018-11-14T03:11:44.848Z,8.61
2018-11-14T03:14:14.911Z,8.53
2018-11-14T03:16:44.968Z,8.64
2018-11-14T03:19:15.466Z,8.67
2018-11-14T03:21:45.249Z,8.69
2018-11-14T03:24:15.618Z,8.75
2018-11-14T03:26:45.717Z,8.81
2018-11-14T03:29:16.153Z,8.86
2018-11-14T03:31:46.067Z,8.90
2018-11-14T03:34:15.916Z,8.88
2018-11-14T03:36:45.765Z,8.89
2018-11-14T03:39:15.637Z,8.89
2018-11-14T03:41:45.551Z,8.94
2018-11-14T03:44:16.060Z,8.94
2018-11-14T03:46:46.459Z,8.97
2018-11-14T03:49:16.624Z,8.97
2018-11-14T03:51:46.669Z,8.90
2018-11-14T03:54:16.992Z,8.94
2018-11-14T03:56:47.020Z,8.94
2018-11-14T03:59:17.548Z,8.92
2018-11-14T04:01:48.730Z,8.89
2018-11-14T04:04:18.590Z,8.81
2018-11-14T04:06:48.549Z,8.84
2018-11-14T04:09:18.735Z,8.86
2018-11-14T04:11:48.523Z,8.90
2018-11-14T04:14:18.643Z,8.88
2018-11-14T04:16:48.452Z,8.91
2018-11-14T04:19:18.147Z,8.85
2018-11-14T04:21:47.998Z,8.84
2018-11-14T04:24:17.938Z,8.87
2018-11-14T04:26:48.513Z,8.87
2018-11-14T04:29:18.629Z,8.80
2018-11-14T04:31:48.438Z,8.77
2018-11-14T04:34:18.307Z,8.73
2018-11-14T04:36:48.298Z,8.65
2018-11-14T04:39:18.524Z,8.64
2018-11-14T04:41:48.481Z,8.58
2018-11-14T04:44:18.219Z,8.62
2018-11-14T04:46:48.039Z,8.54
2018-11-14T04:49:18.260Z,8.54
2018-11-14T04:51:48.853Z,8.53
2018-11-14T04:54:18.734Z,8.48
2018-11-14T04:56:48.473Z,8.48
2018-11-14T04:59:19.214Z,8.61
2018-11-14T05:01:48.928Z,8.31
2018-11-14T05:04:18.642Z,8.36
2018-11-14T05:06:48.588Z,8.28
2018-11-14T05:09:18.429Z,8.35
2018-11-14T05:11:49.075Z,8.33
2018-11-14T05:14:18.738Z,8.41
2018-11-14T05:16:48.433Z,8.46
2018-11-14T05:19:18.269Z,8.42
2018-11-14T05:21:48.227Z,8.44
2018-11-14T05:24:18.692Z,8.41
2018-11-14T05:26:48.518Z,8.42
2018-11-14T05:29:18.249Z,8.31
2018-11-14T05:31:48.749Z,8.34
2018-11-14T05:34:18.757Z,8.28
2018-11-14T05:36:48.512Z,8.29
2018-11-14T05:39:19.340Z,8.23
2018-11-14T05:41:49.192Z,8.25
2018-11-14T05:44:18.877Z,8.18
2018-11-14T05:46:48.900Z,8.15
2018-11-14T05:49:18.638Z,8.03
2018-11-14T05:51:49.342Z,8.06
2018-11-14T05:54:19.040Z,8.13
2018-11-14T05:56:48.990Z,8.11
2018-11-14T05:59:18.748Z,8.09
2018-11-14T06:01:48.500Z,8.04
2018-11-14T06:04:19.555Z,8.03
2018-11-14T06:06:49.559Z,8.01
2018-11-14T06:09:19.443Z,8.00
2018-11-14T06:11:49.414Z,8.00
2018-11-14T06:14:19.152Z,8.04
2018-11-14T06:16:49.375Z,8.14
2018-11-14T06:19:19.769Z,8.09
2018-11-14T06:21:49.781Z,8.28
2018-11-14T06:24:19.596Z,8.27
2018-11-14T06:26:49.457Z,8.36
2018-11-14T06:29:19.241Z,8.23
2018-11-14T06:31:49.038Z,8.29
2018-11-14T06:34:19.689Z,8.45
2018-11-14T06:36:49.422Z,8.43
2018-11-14T06:39:20.348Z,8.46
2018-11-14T06:41:50.272Z,8.46
2018-11-14T06:44:20.626Z,8.45
2018-11-14T06:46:50.821Z,8.44
2018-11-14T06:49:20.979Z,8.54
2018-11-14T06:51:51.068Z,8.54
2018-11-14T06:54:21.281Z,8.42
2018-11-14T06:56:51.379Z,8.33
2018-11-14T06:59:21.906Z,8.37
2018-11-14T07:01:51.861Z,8.39
2018-11-14T07:04:22.072Z,8.42
2018-11-14T07:06:52.259Z,8.42
2018-11-14T07:09:22.420Z,8.46
2018-11-14T07:11:52.799Z,8.55
2018-11-14T07:14:22.880Z,8.39
2018-11-14T07:16:52.692Z,8.39
2018-11-14T07:19:22.578Z,8.40
2018-11-14T07:21:53.543Z,8.45
2018-11-14T07:24:23.687Z,8.52
2018-11-14T07:26:54.935Z,8.58
2018-11-14T07:29:25.343Z,8.64
2018-11-14T07:31:55.523Z,8.63
2018-11-14T07:34:25.474Z,8.70
2018-11-14T07:36:55.669Z,8.70
2018-11-14T07:39:25.737Z,8.71
2018-11-14T07:41:56.316Z,8.78
2018-11-14T07:44:26.361Z,8.78
2018-11-14T07:46:56.124Z,8.75
2018-11-14T07:49:25.947Z,8.81
2018-11-14T07:51:55.921Z,8.89
2018-11-14T07:54:25.870Z,8.91
2018-11-14T07:56:56.063Z,8.92
2018-11-14T07:59:25.971Z,8.97
2018-11-14T08:02:02.891Z,9.00
2018-11-14T08:04:32.968Z,9.06
2018-11-14T08:07:02.979Z,9.12
2018-11-14T08:09:32.995Z,9.19
2018-11-14T08:12:03.817Z,9.18
2018-11-14T08:14:33.775Z,9.19
2018-11-14T08:17:03.771Z,9.18
2018-11-14T08:19:33.751Z,9.25
2018-11-14T08:22:03.651Z,9.28
2018-11-14T08:24:33.564Z,9.24
2018-11-14T08:27:03.488Z,9.28
2018-11-14T08:29:33.896Z,9.37
2018-11-14T08:32:03.983Z,9.44
2018-11-14T08:34:33.869Z,9.44
2018-11-14T08:37:04.443Z,9.43
2018-11-14T08:39:34.368Z,9.40
2018-11-14T08:42:04.270Z,9.56
2018-11-14T08:44:34.200Z,9.63
2018-11-14T08:47:04.114Z,9.68
2018-11-14T08:49:34.239Z,9.68
2018-11-14T08:52:04.840Z,9.76
2018-11-14T08:54:34.752Z,9.80
2018-11-14T08:57:05.007Z,9.79
2018-11-14T08:59:34.968Z,9.84
2018-11-14T09:02:05.397Z,9.88
2018-11-14T09:04:35.697Z,9.95
2018-11-14T09:07:06.712Z,9.97
2018-11-14T09:09:36.824Z,10.02
2018-11-14T09:12:07.628Z,9.90
2018-11-14T09:14:38.186Z,9.94
2018-11-14T09:17:09.317Z,10.05
2018-11-14T09:19:39.582Z,10.03
2018-11-14T09:22:09.606Z,10.04
2018-11-14T09:24:40.160Z,10.12
2018-11-14T09:27:10.213Z,10.09
2018-11-14T09:29:40.040Z,10.09
2018-11-14T09:32:09.942Z,10.08
2018-11-14T09:34:39.866Z,10.22
2018-11-14T09:37:10.081Z,10.28
2018-11-14T09:39:40.166Z,10.34
2018-11-14T09:42:10.036Z,10.29
2018-11-14T09:44:40.630Z,10.37
2018-11-14T09:47:10.717Z,10.49
2018-11-14T09:49:40.927Z,10.57
2018-11-14T09:52:11.192Z,10.54
2018-11-14T09:54:41.091Z,10.67
2018-11-14T09:57:11.489Z,10.69
2018-11-14T09:59:41.375Z,10.75
2018-11-14T10:02:11.367Z,10.80
2018-11-14T10:04:42.206Z,10.78
2018-11-14T10:07:12.324Z,10.80
2018-11-14T10:09:42.172Z,10.96
2018-11-14T10:12:12.234Z,11.04
2018-11-14T10:14:42.102Z,11.08
2018-11-14T10:17:13.237Z,10.98
2018-11-14T10:19:44.487Z,11.05
2018-11-14T10:22:14.557Z,11.04
2018-11-14T10:24:44.613Z,11.20
2018-11-14T10:27:14.777Z,11.12
2018-11-14T10:29:44.727Z,11.15
2018-11-14T10:32:14.647Z,11.23
2018-11-14T10:34:44.515Z,11.16
2018-11-14T10:37:14.767Z,11.31
2018-11-14T10:39:44.711Z,11.35
2018-11-14T10:42:15.398Z,11.39
2018-11-14T10:44:45.272Z,11.46
2018-11-14T10:47:15.420Z,11.60
2018-11-14T10:49:45.211Z,11.54
2018-11-14T10:52:15.015Z,11.59
2018-11-14T10:54:45.006Z,11.43
2018-11-14T10:57:14.919Z,11.73
2018-11-14T10:59:44.892Z,11.59
2018-11-14T11:02:20.002Z,11.58
2018-11-14T11:04:55.083Z,11.79
2018-11-14T11:07:30.146Z,11.83
2018-11-14T11:10:05.907Z,11.83
2018-11-14T11:12:42.104Z,11.83
2018-11-14T11:15:18.119Z,12.01
2018-11-14T11:17:53.397Z,12.02
2018-11-14T11:20:24.243Z,11.88
2018-11-14T11:22:54.496Z,12.02
2018-11-14T11:25:24.945Z,11.99
2018-11-14T11:27:54.838Z,12.02
2018-11-14T11:30:25.318Z,12.04
2018-11-14T11:32:55.402Z,11.98
2018-11-14T11:35:25.341Z,12.12
2018-11-14T11:37:55.479Z,12.10
2018-11-14T11:40:25.589Z,12.07
2018-11-14T11:42:55.594Z,12.23
2018-11-14T11:45:25.375Z,12.33
2018-11-14T11:47:55.181Z,12.38
2018-11-14T11:50:24.917Z,12.38
2018-11-14T11:52:54.765Z,12.33
2018-11-14T11:55:24.912Z,12.42
2018-11-14T11:57:55.446Z,12.38
2018-11-14T12:00:25.438Z,12.30
2018-11-14T12:02:55.434Z,12.43
2018-11-14T12:05:25.351Z,12.31
2018-11-14T12:07:55.939Z,12.36
2018-11-14T12:10:26.033Z,12.49
2018-11-14T12:12:56.209Z,12.51
2018-11-14T12:15:26.195Z,12.55
2018-11-14T12:17:56.352Z,12.33
2018-11-14T12:20:26.246Z,12.55
2018-11-14T12:22:56.326Z,12.50
2018-11-14T12:25:26.340Z,12.51
2018-11-14T12:27:56.281Z,12.59
2018-11-14T12:30:26.299Z,12.61
2018-11-14T12:32:56.292Z,12.64
2018-11-14T12:35:27.285Z,12.64
2018-11-14T12:37:57.245Z,12.61
2018-11-14T12:40:27.429Z,12.51
2018-11-14T12:42:57.514Z,12.60
2018-11-14T12:45:27.808Z,12.66
2018-11-14T12:47:57.947Z,12.57
2018-11-14T12:50:28.276Z,12.61
2018-11-14T12:52:58.522Z,12.52
2018-11-14T12:55:28.594Z,12.64
2018-11-14T12:57:58.438Z,12.46
2018-11-14T13:00:28.375Z,12.49
2018-11-14T13:02:58.206Z,12.51
2018-11-14T13:05:28.079Z,12.46
2018-11-14T13:07:57.959Z,12.46
2018-11-14T13:10:27.784Z,12.49
2018-11-14T13:12:57.660Z,12.40
2018-11-14T13:15:27.490Z,12.39
2018-11-14T13:17:58.054Z,12.42
2018-11-14T13:20:27.898Z,12.45
2018-11-14T13:22:57.603Z,12.45
2018-11-14T13:25:28.250Z,12.50
2018-11-14T13:27:58.104Z,12.50
2018-11-14T13:30:27.947Z,12.48
2018-11-14T13:32:57.764Z,12.50
2018-11-14T13:35:27.747Z,12.39
2018-11-14T13:37:57.718Z,12.34
2018-11-14T13:40:27.606Z,12.49
2018-11-14T13:42:57.533Z,12.40
2018-11-14T13:45:28.764Z,12.47
2018-11-14T13:47:58.708Z,12.47
2018-11-14T13:50:28.763Z,12.55
2018-11-14T13:52:58.378Z,12.55
2018-11-14T13:55:28.996Z,12.48
2018-11-14T13:57:58.851Z,12.40
2018-11-14T14:00:28.750Z,12.35
2018-11-14T14:02:58.974Z,12.37
2018-11-14T14:05:29.565Z,12.26
2018-11-14T14:07:59.589Z,12.29
2018-11-14T14:10:29.536Z,12.25
2018-11-14T14:12:59.422Z,12.35
2018-11-14T14:15:29.473Z,12.23
2018-11-14T14:17:59.390Z,12.08
2018-11-14T14:20:29.314Z,12.13
2018-11-14T14:22:59.586Z,12.18
2018-11-14T14:25:29.465Z,12.20
2018-11-14T14:27:59.472Z,12.10
2018-11-14T14:30:29.403Z,11.84
2018-11-14T14:32:59.368Z,11.80
2018-11-14T14:35:29.206Z,11.83
2018-11-14T14:37:59.254Z,11.81
2018-11-14T14:40:29.120Z,11.70
2018-11-14T14:42:59.078Z,11.68
2018-11-14T14:45:29.176Z,11.46
2018-11-14T14:47:58.937Z,11.59
2018-11-14T14:50:28.887Z,11.81
2018-11-14T14:52:59.151Z,11.45
2018-11-14T14:55:29.186Z,11.34
2018-11-14T14:57:59.142Z,11.25
2018-11-14T15:00:29.301Z,11.12
2018-11-14T15:02:59.961Z,11.07
2018-11-14T15:05:30.066Z,10.94
2018-11-14T15:07:59.926Z,10.88
2018-11-14T15:10:30.563Z,10.98
2018-11-14T15:13:00.573Z,10.86
2018-11-14T15:15:30.599Z,10.79
2018-11-14T15:18:00.375Z,10.79
2018-11-14T15:20:30.139Z,10.70
2018-11-14T15:23:00.058Z,10.62
2018-11-14T15:25:29.966Z,10.76
2018-11-14T15:28:00.163Z,10.61
2018-11-14T15:30:30.962Z,10.58
2018-11-14T15:33:01.274Z,10.52
2018-11-14T15:35:31.249Z,10.45
2018-11-14T15:38:01.274Z,10.41
2018-11-14T15:40:31.224Z,10.38
2018-11-14T15:43:01.943Z,10.31
2018-11-14T15:45:32.789Z,10.25
2018-11-14T15:48:02.710Z,10.37
2018-11-14T15:50:32.611Z,10.19
2018-11-14T15:53:02.753Z,10.39
2018-11-14T15:55:32.984Z,10.25
2018-11-14T15:58:03.224Z,10.37
2018-11-14T16:00:33.885Z,10.13
2018-11-14T16:03:04.663Z,10.19
2018-11-14T16:05:34.778Z,10.15
2018-11-14T16:08:08.042Z,9.91
2018-11-14T16:10:38.010Z,9.79
2018-11-14T16:13:07.880Z,9.80
2018-11-14T16:15:38.716Z,9.74
2018-11-14T16:18:08.707Z,9.80
2018-11-14T16:20:39.007Z,9.69
2018-11-14T16:23:08.943Z,9.81
2018-11-14T16:25:38.918Z,9.79
2018-11-14T16:28:14.412Z,9.53
2018-11-14T16:30:44.293Z,9.50
2018-11-14T16:33:14.355Z,9.35
2018-11-14T16:35:44.942Z,9.12
2018-11-14T16:38:14.831Z,9.11
2018-11-14T16:40:44.611Z,9.01
2018-11-14T16:43:14.453Z,9.05
2018-11-14T16:45:44.213Z,9.07
2018-11-14T16:48:14.102Z,8.92
2018-11-14T16:50:43.933Z,8.88
2018-11-14T16:53:13.828Z,8.83
2018-11-14T16:55:44.545Z,8.72
2018-11-14T16:58:14.624Z,8.60
2018-11-14T17:00:44.853Z,8.64
2018-11-14T17:03:14.773Z,8.65
2018-11-14T17:05:44.926Z,8.66
2018-11-14T17:08:15.034Z,8.52
2018-11-14T17:10:44.982Z,8.52
2018-11-14T17:13:14.932Z,8.40
2018-11-14T17:15:44.902Z,8.32
2018-11-14T17:18:14.678Z,8.31
2018-11-14T17:20:44.529Z,8.27
2018-11-14T17:23:15.224Z,8.20
2018-11-14T17:25:45.183Z,8.19
2018-11-14T17:28:14.904Z,8.16
2018-11-14T17:30:45.353Z,8.19
2018-11-14T17:33:15.640Z,8.17
2018-11-14T17:35:45.470Z,8.14
2018-11-14T17:38:15.277Z,8.11
2018-11-14T17:40:45.186Z,8.05
2018-11-14T17:43:15.027Z,8.07
2018-11-14T17:45:45.276Z,8.03
2018-11-14T17:48:15.209Z,7.93
2018-11-14T17:50:45.212Z,7.98
2018-11-14T17:53:15.687Z,8.16
2018-11-14T17:55:45.584Z,8.03
2018-11-14T17:58:15.443Z,7.90
2018-11-14T18:00:46.292Z,7.94
2018-11-14T18:03:16.074Z,7.90
2018-11-14T18:05:45.927Z,7.79
2018-11-14T18:08:15.808Z,7.81
2018-11-14T18:10:45.823Z,7.73
2018-11-14T18:13:15.799Z,7.66
2018-11-14T18:15:45.697Z,7.71
2018-11-14T18:18:15.770Z,7.59
2018-11-14T18:20:46.289Z,7.55
2018-11-14T18:23:16.192Z,7.56
2018-11-14T18:25:46.167Z,7.67
2018-11-14T18:28:16.091Z,7.61
2018-11-14T18:30:46.208Z,7.62
2018-11-14T18:33:16.694Z,7.54
2018-11-14T18:35:46.811Z,7.50
2018-11-14T18:38:16.771Z,7.51
2018-11-14T18:40:47.036Z,7.39
2018-11-14T18:43:16.858Z,7.45
2018-11-14T18:45:48.063Z,7.44
2018-11-14T18:48:17.906Z,7.37
2018-11-14T18:50:48.652Z,7.48
2018-11-14T18:53:18.567Z,7.43
2018-11-14T18:55:48.514Z,7.37
2018-11-14T18:58:18.417Z,7.35
2018-11-14T19:00:48.320Z,7.33
2018-11-14T19:03:18.123Z,7.34
2018-11-14T19:05:48.041Z,7.34
2018-11-14T19:08:18.161Z,7.33
2018-11-14T19:10:48.274Z,7.43
2018-11-14T19:13:18.146Z,7.62
2018-11-14T19:15:47.976Z,7.55
2018-11-14T19:18:17.901Z,7.63
2018-11-14T19:20:47.946Z,7.69
2018-11-14T19:23:17.772Z,7.64
2018-11-14T19:25:47.586Z,7.67
2018-11-14T19:28:17.448Z,7.74
2018-11-14T19:30:48.186Z,7.77
2018-11-14T19:33:18.205Z,7.78
2018-11-14T19:35:48.312Z,7.81
2018-11-14T19:38:18.237Z,7.85
2018-11-14T19:40:48.283Z,7.81
2018-11-14T19:43:19.155Z,7.81
2018-11-14T19:45:49.113Z,7.84
2018-11-14T19:48:18.960Z,7.79
2018-11-14T19:50:48.884Z,7.88
2018-11-14T19:53:19.761Z,7.92
2018-11-14T19:55:49.565Z,7.87
2018-11-14T19:58:19.748Z,7.81
2018-11-14T20:00:49.626Z,7.84
2018-11-14T20:03:19.823Z,7.93
2018-11-14T20:05:49.977Z,7.76
2018-11-14T20:08:20.246Z,7.75
2018-11-14T20:10:50.407Z,7.74
2018-11-14T20:13:20.758Z,7.85
2018-11-14T20:15:50.898Z,7.73
2018-11-14T20:18:21.283Z,7.77
2018-11-14T20:20:51.340Z,7.75
2018-11-14T20:23:21.899Z,7.83
2018-11-14T20:25:52.177Z,7.73
2018-11-14T20:28:22.188Z,7.80
2018-11-14T20:30:52.138Z,7.78
2018-11-14T20:33:22.393Z,7.74
2018-11-14T20:35:52.447Z,7.68
2018-11-14T20:38:22.787Z,7.76
2018-11-14T20:40:52.759Z,7.64
2018-11-14T20:43:23.064Z,7.66
2018-11-14T20:45:53.094Z,7.73
2018-11-14T20:48:23.290Z,7.85
2018-11-14T20:50:53.200Z,7.71
2018-11-14T20:53:23.435Z,7.76
2018-11-14T20:55:53.326Z,7.74
2018-11-14T20:58:23.867Z,7.74
2018-11-14T21:00:54.016Z,7.73
2018-11-14T21:03:24.401Z,7.57
2018-11-14T21:05:54.159Z,7.75
2018-11-14T21:08:24.636Z,7.64
2018-11-14T21:10:54.567Z,7.68
2018-11-14T21:13:24.663Z,7.62
2018-11-14T21:15:54.431Z,7.55
2018-11-14T21:18:24.611Z,7.56
2018-11-14T21:20:54.528Z,7.44
2018-11-14T21:23:24.778Z,7.50
2018-11-14T21:25:55.447Z,7.56
2018-11-14T21:28:26.360Z,7.44
2018-11-14T21:31:03.311Z,7.60
2018-11-14T21:33:33.178Z,7.48
2018-11-14T21:36:03.761Z,7.43
2018-11-14T21:38:33.886Z,7.32
2018-11-14T21:41:03.987Z,7.35
2018-11-14T21:43:34.036Z,7.32
2018-11-14T21:46:04.386Z,7.38
2018-11-14T21:48:34.319Z,7.33
2018-11-14T21:51:04.256Z,7.33
2018-11-14T21:53:34.193Z,7.29
2018-11-14T21:56:04.382Z,7.20
2018-11-14T21:58:34.526Z,7.15
2018-11-14T22:01:11.121Z,7.09
2018-11-14T22:03:41.688Z,7.15
2018-11-14T22:06:11.852Z,6.99
2018-11-14T22:08:42.013Z,7.00
2018-11-14T22:11:12.366Z,6.98
2018-11-14T22:13:43.512Z,7.07
2018-11-14T22:16:13.491Z,6.98
2018-11-14T22:18:43.507Z,7.10
2018-11-14T22:21:14.061Z,7.09
2018-11-14T22:23:44.205Z,7.00
2018-11-14T22:26:14.404Z,6.99
2018-11-14T22:28:44.567Z,7.04
2018-11-14T22:31:14.665Z,6.99
2018-11-14T22:33:45.165Z,6.90
2018-11-14T22:36:17.145Z,7.04
2018-11-14T22:38:47.344Z,7.02
2018-11-14T22:41:17.732Z,6.93
2018-11-14T22:43:47.890Z,6.76
2018-11-14T22:46:17.932Z,6.48
2018-11-14T22:48:47.966Z,6.28
2018-11-14T22:51:18.430Z,6.17
2018-11-14T22:53:48.611Z,6.04
2018-11-14T22:56:19.039Z,5.93
2018-11-14T22:58:49.126Z,5.84
2018-11-14T23:01:19.052Z,5.79
2018-11-14T23:03:49.664Z,5.71
2018-11-14T23:06:19.566Z,5.68
2018-11-14T23:08:49.707Z,5.62
2018-11-14T23:11:19.749Z,5.58
2018-11-14T23:13:50.200Z,5.55
2018-11-14T23:16:21.261Z,5.49
2018-11-14T23:18:51.145Z,5.50
2018-11-14T23:21:20.994Z,5.45
2018-11-14T23:23:50.909Z,5.36
2018-11-14T23:26:21.147Z,5.36
2018-11-14T23:28:51.224Z,5.33
2018-11-14T23:31:21.425Z,5.35
2018-11-14T23:33:51.360Z,5.33
2018-11-14T23:36:21.220Z,5.32
2018-11-14T23:38:51.260Z,5.36
2018-11-14T23:41:22.404Z,5.38
2018-11-14T23:43:52.300Z,5.34
2018-11-14T23:46:22.311Z,5.35
2018-11-14T23:48:52.155Z,5.34
2018-11-14T23:51:22.104Z,5.31
2018-11-14T23:53:51.895Z,5.34
2018-11-14T23:56:21.760Z,5.26
2018-11-14T23:58:51.644Z,5.22
